sensor_id;sensor_type;location;lat;lon;timestamp;noise_LAeq;noise_LA_min;noise_LA_max;noise_LA01;noise_LA95
37223;Laerm;28026;48.562;14.440;2023-08-08T00:00:45;40.32;30.89;62.56;;
37223;Laerm;28026;48.562;14.440;2023-08-08T00:03:16;46.97;32.35;74.74;;
37223;Laerm;28026;48.562;14.440;2023-08-08T00:05:47;39.73;32.35;62.27;;
37223;Laerm;28026;48.562;14.440;2023-08-08T00:08:18;44.50;31.68;69.38;;
37223;Laerm;28026;48.562;14.440;2023-08-08T00:10:49;38.79;30.89;62.79;;
37223;Laerm;28026;48.562;14.440;2023-08-08T00:13:20;40.78;30.89;73.63;;
37223;Laerm;28026;48.562;14.440;2023-08-08T00:15:51;36.52;26.91;43.72;;
37223;Laerm;28026;48.562;14.440;2023-08-08T00:18:21;40.47;29.92;49.51;;
37223;Laerm;28026;48.562;14.440;2023-08-08T00:20:52;39.52;33.90;51.47;;
37223;Laerm;28026;48.562;14.440;2023-08-08T00:23:23;37.32;31.68;53.82;;
37223;Laerm;28026;48.562;14.440;2023-08-08T00:25:54;36.96;31.68;45.72;;
37223;Laerm;28026;48.562;14.440;2023-08-08T00:28:25;38.13;31.68;44.23;;
37223;Laerm;28026;48.562;14.440;2023-08-08T00:30:56;40.39;33.44;50.61;;
37223;Laerm;28026;48.562;14.440;2023-08-08T00:33:26;36.80;28.67;42.41;;
37223;Laerm;28026;48.562;14.440;2023-08-08T00:35:57;36.77;28.67;45.91;;
37223;Laerm;28026;48.562;14.440;2023-08-08T00:38:28;40.42;30.89;51.88;;
37223;Laerm;28026;48.562;14.440;2023-08-08T00:40:59;40.78;32.93;56.77;;
37223;Laerm;28026;48.562;14.440;2023-08-08T00:43:30;37.91;30.89;58.43;;
37223;Laerm;28026;48.562;14.440;2023-08-08T00:46:01;37.66;31.68;55.45;;
37223;Laerm;28026;48.562;14.440;2023-08-08T00:48:32;37.55;32.35;51.47;;
37223;Laerm;28026;48.562;14.440;2023-08-08T00:51:03;37.60;30.89;49.90;;
37223;Laerm;28026;48.562;14.440;2023-08-08T00:53:34;37.16;31.68;46.95;;
37223;Laerm;28026;48.562;14.440;2023-08-08T00:56:06;38.27;29.92;60.24;;
37223;Laerm;28026;48.562;14.440;2023-08-08T00:58:37;37.84;30.89;52.42;;
37223;Laerm;28026;48.562;14.440;2023-08-08T01:01:08;37.40;30.89;51.22;;
37223;Laerm;28026;48.562;14.440;2023-08-08T01:03:39;37.40;32.35;43.14;;
37223;Laerm;28026;48.562;14.440;2023-08-08T01:06:29;37.08;32.35;45.39;;
37223;Laerm;28026;48.562;14.440;2023-08-08T01:09:24;37.10;30.54;40.63;;
37223;Laerm;28026;48.562;14.440;2023-08-08T01:12:01;37.16;29.92;39.92;;
37223;Laerm;28026;48.562;14.440;2023-08-08T01:14:35;37.05;30.89;39.58;;
37223;Laerm;28026;48.562;14.440;2023-08-08T01:17:08;37.06;31.68;40.43;;
37223;Laerm;28026;48.562;14.440;2023-08-08T01:19:41;37.30;30.89;40.23;;
37223;Laerm;28026;48.562;14.440;2023-08-08T01:22:36;40.79;33.90;50.31;;
37223;Laerm;28026;48.562;14.440;2023-08-08T01:25:09;38.59;32.35;47.22;;
37223;Laerm;28026;48.562;14.440;2023-08-08T01:27:42;37.18;29.92;39.58;;
37223;Laerm;28026;48.562;14.440;2023-08-08T01:30:13;37.17;32.35;39.81;;
37223;Laerm;28026;48.562;14.440;2023-08-08T01:32:44;37.30;29.92;43.04;;
37223;Laerm;28026;48.562;14.440;2023-08-08T01:35:15;38.09;30.89;42.98;;
37223;Laerm;28026;48.562;14.440;2023-08-08T01:37:54;37.20;30.89;39.92;;
37223;Laerm;28026;48.562;14.440;2023-08-08T01:40:29;37.08;29.92;39.81;;
37223;Laerm;28026;48.562;14.440;2023-08-08T01:43:00;36.68;31.68;39.81;;
37223;Laerm;28026;48.562;14.440;2023-08-08T01:45:31;36.62;30.89;39.58;;
37223;Laerm;28026;48.562;14.440;2023-08-08T01:48:08;36.88;30.89;41.14;;
37223;Laerm;28026;48.562;14.440;2023-08-08T01:50:39;36.92;30.89;43.29;;
37223;Laerm;28026;48.562;14.440;2023-08-08T01:53:10;36.93;30.89;43.04;;
37223;Laerm;28026;48.562;14.440;2023-08-08T01:55:42;38.31;32.35;46.97;;
37223;Laerm;28026;48.562;14.440;2023-08-08T01:58:13;40.70;29.92;45.20;;
37223;Laerm;28026;48.562;14.440;2023-08-08T02:00:44;37.48;32.35;42.03;;
37223;Laerm;28026;48.562;14.440;2023-08-08T02:03:17;36.90;32.35;39.70;;
37223;Laerm;28026;48.562;14.440;2023-08-08T02:05:48;36.92;30.89;39.70;;
37223;Laerm;28026;48.562;14.440;2023-08-08T02:08:19;38.03;31.68;43.04;;
37223;Laerm;28026;48.562;14.440;2023-08-08T02:10:50;37.42;31.68;42.58;;
37223;Laerm;28026;48.562;14.440;2023-08-08T02:13:21;38.20;32.93;45.04;;
37223;Laerm;28026;48.562;14.440;2023-08-08T02:15:51;38.97;32.93;46.69;;
37223;Laerm;28026;48.562;14.440;2023-08-08T02:18:23;40.89;29.92;51.78;;
37223;Laerm;28026;48.562;14.440;2023-08-08T02:20:54;38.35;33.44;44.31;;
37223;Laerm;28026;48.562;14.440;2023-08-08T02:23:25;37.21;32.35;40.80;;
37223;Laerm;28026;48.562;14.440;2023-08-08T02:25:57;36.94;30.89;41.61;;
37223;Laerm;28026;48.562;14.440;2023-08-08T02:28:27;37.41;32.35;44.45;;
37223;Laerm;28026;48.562;14.440;2023-08-08T02:30:59;44.04;35.36;55.32;;
37223;Laerm;28026;48.562;14.440;2023-08-08T02:33:30;40.71;31.68;48.32;;
37223;Laerm;28026;48.562;14.440;2023-08-08T02:36:01;41.96;34.31;63.41;;
37223;Laerm;28026;48.562;14.440;2023-08-08T02:38:32;38.45;32.93;44.94;;
37223;Laerm;28026;48.562;14.440;2023-08-08T02:41:03;38.07;33.09;50.27;;
37223;Laerm;28026;48.562;14.440;2023-08-08T02:43:34;37.49;32.93;45.80;;
37223;Laerm;28026;48.562;14.440;2023-08-08T02:46:05;37.45;31.68;49.89;;
37223;Laerm;28026;48.562;14.440;2023-08-08T02:48:36;41.30;33.90;45.69;;
37223;Laerm;28026;48.562;14.440;2023-08-08T02:51:07;37.58;30.89;41.68;;
37223;Laerm;28026;48.562;14.440;2023-08-08T02:53:38;37.57;32.35;48.48;;
37223;Laerm;28026;48.562;14.440;2023-08-08T02:56:08;38.67;32.93;54.29;;
37223;Laerm;28026;48.562;14.440;2023-08-08T02:58:39;38.59;30.89;66.73;;
37223;Laerm;28026;48.562;14.440;2023-08-08T03:01:10;37.27;31.68;48.96;;
37223;Laerm;28026;48.562;14.440;2023-08-08T03:03:44;37.83;31.68;44.51;;
37223;Laerm;28026;48.562;14.440;2023-08-08T03:06:15;40.84;32.93;68.21;;
37223;Laerm;28026;48.562;14.440;2023-08-08T03:08:45;37.05;32.35;45.07;;
37223;Laerm;28026;48.562;14.440;2023-08-08T03:11:16;36.87;31.68;42.88;;
37223;Laerm;28026;48.562;14.440;2023-08-08T03:13:47;37.91;31.68;53.34;;
37223;Laerm;28026;48.562;14.440;2023-08-08T03:16:18;39.35;33.44;44.15;;
37223;Laerm;28026;48.562;14.440;2023-08-08T03:18:49;40.54;32.35;52.25;;
37223;Laerm;28026;48.562;14.440;2023-08-08T03:21:20;38.03;33.90;47.16;;
37223;Laerm;28026;48.562;14.440;2023-08-08T03:23:50;37.77;32.35;43.24;;
37223;Laerm;28026;48.562;14.440;2023-08-08T03:26:21;37.54;32.35;49.96;;
37223;Laerm;28026;48.562;14.440;2023-08-08T03:28:52;39.45;33.09;44.69;;
37223;Laerm;28026;48.562;14.440;2023-08-08T03:31:24;39.56;34.69;44.51;;
37223;Laerm;28026;48.562;14.440;2023-08-08T03:33:56;40.58;33.90;58.94;;
37223;Laerm;28026;48.562;14.440;2023-08-08T03:36:27;41.99;37.32;53.79;;
37223;Laerm;28026;48.562;14.440;2023-08-08T03:38:58;40.84;35.04;48.64;;
37223;Laerm;28026;48.562;14.440;2023-08-08T03:41:29;38.27;32.93;55.55;;
37223;Laerm;28026;48.562;14.440;2023-08-08T03:44:00;41.79;33.55;50.67;;
37223;Laerm;28026;48.562;14.440;2023-08-08T03:46:33;43.14;32.93;69.71;;
37223;Laerm;28026;48.562;14.440;2023-08-08T03:49:04;41.29;34.31;52.95;;
37223;Laerm;28026;48.562;14.440;2023-08-08T03:51:35;38.11;33.44;46.84;;
37223;Laerm;28026;48.562;14.440;2023-08-08T03:54:06;38.72;32.93;50.33;;
37223;Laerm;28026;48.562;14.440;2023-08-08T03:56:37;38.61;32.93;55.01;;
37223;Laerm;28026;48.562;14.440;2023-08-08T03:59:08;41.73;35.04;53.13;;
37223;Laerm;28026;48.562;14.440;2023-08-08T04:01:39;39.32;34.69;53.74;;
37223;Laerm;28026;48.562;14.440;2023-08-08T04:04:09;40.67;34.31;48.76;;
37223;Laerm;28026;48.562;14.440;2023-08-08T04:06:40;40.67;34.31;51.91;;
37223;Laerm;28026;48.562;14.440;2023-08-08T04:09:11;40.25;34.69;55.73;;
37223;Laerm;28026;48.562;14.440;2023-08-08T04:11:42;39.87;34.69;56.81;;
37223;Laerm;28026;48.562;14.440;2023-08-08T04:14:13;41.33;36.45;53.77;;
37223;Laerm;28026;48.562;14.440;2023-08-08T04:16:44;40.91;35.94;47.67;;
37223;Laerm;28026;48.562;14.440;2023-08-08T04:19:15;42.06;34.69;65.10;;
37223;Laerm;28026;48.562;14.440;2023-08-08T04:21:45;39.70;34.31;53.05;;
37223;Laerm;28026;48.562;14.440;2023-08-08T04:24:16;42.16;36.69;49.40;;
37223;Laerm;28026;48.562;14.440;2023-08-08T04:26:47;38.82;33.44;45.86;;
37223;Laerm;28026;48.562;14.440;2023-08-08T04:29:18;38.39;33.44;52.13;;
37223;Laerm;28026;48.562;14.440;2023-08-08T04:31:49;40.88;35.04;47.68;;
37223;Laerm;28026;48.562;14.440;2023-08-08T04:34:20;40.69;36.69;47.18;;
37223;Laerm;28026;48.562;14.440;2023-08-08T04:36:51;39.88;34.31;51.57;;
37223;Laerm;28026;48.562;14.440;2023-08-08T04:39:22;40.58;35.04;47.88;;
37223;Laerm;28026;48.562;14.440;2023-08-08T04:41:52;41.20;35.59;54.67;;
37223;Laerm;28026;48.562;14.440;2023-08-08T04:44:23;39.82;34.69;49.67;;
37223;Laerm;28026;48.562;14.440;2023-08-08T04:46:55;40.10;35.66;50.91;;
37223;Laerm;28026;48.562;14.440;2023-08-08T04:49:26;41.73;35.66;51.78;;
37223;Laerm;28026;48.562;14.440;2023-08-08T04:51:57;40.85;36.45;49.78;;
37223;Laerm;28026;48.562;14.440;2023-08-08T04:54:29;42.04;34.69;54.98;;
37223;Laerm;28026;48.562;14.440;2023-08-08T04:57:00;41.26;35.66;46.59;;
37223;Laerm;28026;48.562;14.440;2023-08-08T04:59:31;41.09;35.94;52.83;;
37223;Laerm;28026;48.562;14.440;2023-08-08T05:02:02;41.66;35.04;62.74;;
37223;Laerm;28026;48.562;14.440;2023-08-08T05:04:32;41.75;33.90;68.41;;
37223;Laerm;28026;48.562;14.440;2023-08-08T05:07:04;43.98;36.20;66.28;;
37223;Laerm;28026;48.562;14.440;2023-08-08T05:09:35;40.40;35.94;63.58;;
37223;Laerm;28026;48.562;14.440;2023-08-08T05:12:06;41.42;33.90;65.34;;
37223;Laerm;28026;48.562;14.440;2023-08-08T05:14:37;45.34;36.45;64.70;;
37223;Laerm;28026;48.562;14.440;2023-08-08T05:17:08;42.20;35.94;62.08;;
37223;Laerm;28026;48.562;14.440;2023-08-08T05:19:39;43.00;35.36;67.49;;
37223;Laerm;28026;48.562;14.440;2023-08-08T05:22:10;45.59;36.20;72.73;;
37223;Laerm;28026;48.562;14.440;2023-08-08T05:24:41;49.78;36.20;72.26;;
37223;Laerm;28026;48.562;14.440;2023-08-08T05:27:12;47.26;35.59;68.33;;
37223;Laerm;28026;48.562;14.440;2023-08-08T05:29:42;44.65;37.52;70.26;;
37223;Laerm;28026;48.562;14.440;2023-08-08T05:32:13;42.45;37.70;59.66;;
37223;Laerm;28026;48.562;14.440;2023-08-08T05:34:44;40.30;34.69;57.00;;
37223;Laerm;28026;48.562;14.440;2023-08-08T05:37:15;40.98;34.69;51.71;;
37223;Laerm;28026;48.562;14.440;2023-08-08T05:39:46;40.62;35.94;57.64;;
37223;Laerm;28026;48.562;14.440;2023-08-08T05:42:17;41.28;35.04;63.28;;
37223;Laerm;28026;48.562;14.440;2023-08-08T05:44:47;42.99;34.69;67.15;;
37223;Laerm;28026;48.562;14.440;2023-08-08T05:47:18;46.89;36.45;68.25;;
37223;Laerm;28026;48.562;14.440;2023-08-08T05:49:50;46.65;37.32;69.47;;
37223;Laerm;28026;48.562;14.440;2023-08-08T05:52:21;44.81;39.08;68.39;;
37223;Laerm;28026;48.562;14.440;2023-08-08T05:54:52;52.21;38.67;76.78;;
37223;Laerm;28026;48.562;14.440;2023-08-08T05:57:23;51.42;35.36;80.64;;
37223;Laerm;28026;48.562;14.440;2023-08-08T05:59:54;45.25;37.52;67.97;;
37223;Laerm;28026;48.562;14.440;2023-08-08T06:02:25;44.15;37.52;64.53;;
37223;Laerm;28026;48.562;14.440;2023-08-08T06:04:56;42.93;37.12;52.95;;
37223;Laerm;28026;48.562;14.440;2023-08-08T06:07:27;43.60;36.20;55.11;;
37223;Laerm;28026;48.562;14.440;2023-08-08T06:09:58;41.74;35.66;53.24;;
37223;Laerm;28026;48.562;14.440;2023-08-08T06:12:28;41.58;36.20;52.04;;
37223;Laerm;28026;48.562;14.440;2023-08-08T06:14:59;40.71;35.04;59.19;;
37223;Laerm;28026;48.562;14.440;2023-08-08T06:17:30;41.76;36.45;60.93;;
37223;Laerm;28026;48.562;14.440;2023-08-08T06:20:01;43.00;38.52;56.08;;
37223;Laerm;28026;48.562;14.440;2023-08-08T06:22:32;42.90;34.69;61.90;;
37223;Laerm;28026;48.562;14.440;2023-08-08T06:25:04;42.82;35.04;70.92;;
37223;Laerm;28026;48.562;14.440;2023-08-08T06:27:35;48.18;35.36;69.75;;
37223;Laerm;28026;48.562;14.440;2023-08-08T06:30:07;49.97;36.69;72.63;;
37223;Laerm;28026;48.562;14.440;2023-08-08T06:32:39;60.22;36.91;83.37;;
37223;Laerm;28026;48.562;14.440;2023-08-08T06:35:10;65.33;36.45;93.00;;
37223;Laerm;28026;48.562;14.440;2023-08-08T06:37:41;59.14;36.91;88.54;;
37223;Laerm;28026;48.562;14.440;2023-08-08T06:40:12;46.41;36.69;71.85;;
37223;Laerm;28026;48.562;14.440;2023-08-08T06:42:43;56.10;36.91;85.35;;
37223;Laerm;28026;48.562;14.440;2023-08-08T06:45:14;58.01;36.45;83.01;;
37223;Laerm;28026;48.562;14.440;2023-08-08T06:47:45;57.06;37.32;81.58;;
37223;Laerm;28026;48.562;14.440;2023-08-08T06:50:17;57.88;35.36;84.35;;
37223;Laerm;28026;48.562;14.440;2023-08-08T06:52:48;51.22;35.66;72.90;;
37223;Laerm;28026;48.562;14.440;2023-08-08T06:55:19;51.88;36.91;84.29;;
37223;Laerm;28026;48.562;14.440;2023-08-08T06:57:50;55.80;35.94;83.77;;
37223;Laerm;28026;48.562;14.440;2023-08-08T07:00:21;56.06;36.91;82.49;;
37223;Laerm;28026;48.562;14.440;2023-08-08T07:02:52;58.25;36.20;85.87;;
37223;Laerm;28026;48.562;14.440;2023-08-08T07:05:23;47.85;38.67;75.26;;
37223;Laerm;28026;48.562;14.440;2023-08-08T07:07:54;50.82;37.70;76.55;;
37223;Laerm;28026;48.562;14.440;2023-08-08T07:10:25;51.83;38.37;83.47;;
37223;Laerm;28026;48.562;14.440;2023-08-08T07:12:56;52.27;37.88;81.57;;
37223;Laerm;28026;48.562;14.440;2023-08-08T07:15:27;56.61;37.52;79.41;;
37223;Laerm;28026;48.562;14.440;2023-08-08T07:17:59;44.17;34.31;69.07;;
37223;Laerm;28026;48.562;14.440;2023-08-08T07:20:30;44.84;38.37;71.50;;
37223;Laerm;28026;48.562;14.440;2023-08-08T07:23:01;56.28;35.94;82.51;;
37223;Laerm;28026;48.562;14.440;2023-08-08T07:25:32;55.05;37.12;79.20;;
37223;Laerm;28026;48.562;14.440;2023-08-08T07:28:04;58.49;37.32;87.51;;
37223;Laerm;28026;48.562;14.440;2023-08-08T07:30:35;66.70;39.81;92.02;;
37223;Laerm;28026;48.562;14.440;2023-08-08T07:33:07;64.58;37.88;91.23;;
37223;Laerm;28026;48.562;14.440;2023-08-08T07:35:39;56.51;37.88;85.28;;
37223;Laerm;28026;48.562;14.440;2023-08-08T07:38:10;50.89;37.70;80.21;;
37223;Laerm;28026;48.562;14.440;2023-08-08T07:40:41;60.11;36.69;85.58;;
37223;Laerm;28026;48.562;14.440;2023-08-08T07:43:12;58.67;35.94;79.60;;
37223;Laerm;28026;48.562;14.440;2023-08-08T07:45:43;43.06;35.66;69.42;;
37223;Laerm;28026;48.562;14.440;2023-08-08T07:48:14;50.23;36.45;81.97;;
37223;Laerm;28026;48.562;14.440;2023-08-08T07:50:44;52.76;35.66;80.21;;
37223;Laerm;28026;48.562;14.440;2023-08-08T07:53:15;63.95;38.37;93.78;;
37223;Laerm;28026;48.562;14.440;2023-08-08T07:55:46;56.78;37.32;83.21;;
37223;Laerm;28026;48.562;14.440;2023-08-08T07:58:17;57.63;37.12;83.76;;
37223;Laerm;28026;48.562;14.440;2023-08-08T08:00:48;57.77;36.91;84.73;;
37223;Laerm;28026;48.562;14.440;2023-08-08T08:03:22;53.25;35.66;81.20;;
37223;Laerm;28026;48.562;14.440;2023-08-08T08:05:53;47.18;37.12;74.72;;
37223;Laerm;28026;48.562;14.440;2023-08-08T08:08:24;64.64;37.52;90.98;;
37223;Laerm;28026;48.562;14.440;2023-08-08T08:10:55;45.07;36.45;68.92;;
37223;Laerm;28026;48.562;14.440;2023-08-08T08:13:26;48.19;36.91;74.81;;
37223;Laerm;28026;48.562;14.440;2023-08-08T08:15:57;47.78;35.66;74.81;;
37223;Laerm;28026;48.562;14.440;2023-08-08T08:18:28;55.56;35.94;83.01;;
37223;Laerm;28026;48.562;14.440;2023-08-08T08:20:59;56.82;38.37;83.67;;
37223;Laerm;28026;48.562;14.440;2023-08-08T08:23:30;49.46;36.45;74.82;;
37223;Laerm;28026;48.562;14.440;2023-08-08T08:26:02;47.89;36.45;67.49;;
37223;Laerm;28026;48.562;14.440;2023-08-08T08:28:33;58.79;36.69;87.49;;
37223;Laerm;28026;48.562;14.440;2023-08-08T08:31:07;47.90;36.34;73.31;;
37223;Laerm;28026;48.562;14.440;2023-08-08T08:33:38;47.44;33.90;72.28;;
37223;Laerm;28026;48.562;14.440;2023-08-08T08:36:09;53.73;38.05;78.65;;
37223;Laerm;28026;48.562;14.440;2023-08-08T08:38:40;59.72;37.88;87.32;;
37223;Laerm;28026;48.562;14.440;2023-08-08T08:41:17;59.24;38.67;84.56;;
37223;Laerm;28026;48.562;14.440;2023-08-08T08:43:50;57.95;38.05;86.29;;
37223;Laerm;28026;48.562;14.440;2023-08-08T08:46:24;58.77;39.70;83.84;;
37223;Laerm;28026;48.562;14.440;2023-08-08T08:48:59;60.44;37.88;84.49;;
37223;Laerm;28026;48.562;14.440;2023-08-08T08:51:30;62.57;37.88;94.08;;
37223;Laerm;28026;48.562;14.440;2023-08-08T08:54:02;55.50;35.94;81.65;;
37223;Laerm;28026;48.562;14.440;2023-08-08T08:56:33;55.80;35.66;78.06;;
37223;Laerm;28026;48.562;14.440;2023-08-08T08:59:05;56.69;35.66;87.24;;
37223;Laerm;28026;48.562;14.440;2023-08-08T09:01:37;55.11;35.36;86.00;;
37223;Laerm;28026;48.562;14.440;2023-08-08T09:04:09;49.91;35.36;72.63;;
37223;Laerm;28026;48.562;14.440;2023-08-08T09:06:42;54.93;35.36;81.18;;
37223;Laerm;28026;48.562;14.440;2023-08-08T09:09:14;46.16;35.04;73.20;;
37223;Laerm;28026;48.562;14.440;2023-08-08T09:11:53;49.98;37.52;80.18;;
37223;Laerm;28026;48.562;14.440;2023-08-08T09:14:27;42.68;37.70;66.90;;
37223;Laerm;28026;48.562;14.440;2023-08-08T09:16:58;41.59;35.94;63.74;;
37223;Laerm;28026;48.562;14.440;2023-08-08T09:19:29;47.67;36.45;73.35;;
37223;Laerm;28026;48.562;14.440;2023-08-08T09:22:01;58.86;38.21;84.41;;
37223;Laerm;28026;48.562;14.440;2023-08-08T09:24:32;51.32;38.05;77.48;;
37223;Laerm;28026;48.562;14.440;2023-08-08T09:27:03;57.32;37.88;82.99;;
37223;Laerm;28026;48.562;14.440;2023-08-08T09:29:37;53.54;36.69;80.54;;
37223;Laerm;28026;48.562;14.440;2023-08-08T09:32:09;53.50;36.20;85.77;;
37223;Laerm;28026;48.562;14.440;2023-08-08T09:34:42;56.16;36.20;84.62;;
37223;Laerm;28026;48.562;14.440;2023-08-08T09:37:16;54.04;36.91;78.90;;
37223;Laerm;28026;48.562;14.440;2023-08-08T09:39:59;51.58;35.04;84.02;;
37223;Laerm;28026;48.562;14.440;2023-08-08T09:42:31;54.85;36.69;80.91;;
37223;Laerm;28026;48.562;14.440;2023-08-08T09:45:02;66.70;38.67;90.40;;
37223;Laerm;28026;48.562;14.440;2023-08-08T09:47:34;70.21;39.58;97.52;;
37223;Laerm;28026;48.562;14.440;2023-08-08T09:50:06;66.66;39.34;91.97;;
37223;Laerm;28026;48.562;14.440;2023-08-08T09:52:37;63.85;39.08;87.14;;
37223;Laerm;28026;48.562;14.440;2023-08-08T09:55:12;65.38;40.03;93.43;;
37223;Laerm;28026;48.562;14.440;2023-08-08T09:57:44;57.85;38.60;82.89;;
37223;Laerm;28026;48.562;14.440;2023-08-08T10:00:16;56.60;37.70;83.08;;
37223;Laerm;28026;48.562;14.440;2023-08-08T10:02:47;57.66;40.43;80.58;;
37223;Laerm;28026;48.562;14.440;2023-08-08T10:05:18;61.50;37.12;90.65;;
37223;Laerm;28026;48.562;14.440;2023-08-08T10:07:49;56.67;38.37;85.00;;
37223;Laerm;28026;48.562;14.440;2023-08-08T10:10:20;61.36;38.81;84.42;;
37223;Laerm;28026;48.562;14.440;2023-08-08T10:12:52;57.95;38.52;84.24;;
37223;Laerm;28026;48.562;14.440;2023-08-08T10:15:27;53.47;36.69;80.84;;
37223;Laerm;28026;48.562;14.440;2023-08-08T10:18:00;64.92;40.98;92.97;;
37223;Laerm;28026;48.562;14.440;2023-08-08T10:20:32;53.05;39.21;82.48;;
37223;Laerm;28026;48.562;14.440;2023-08-08T10:23:06;58.27;40.80;85.07;;
37223;Laerm;28026;48.562;14.440;2023-08-08T10:25:48;59.75;37.70;85.13;;
37223;Laerm;28026;48.562;14.440;2023-08-08T10:28:21;57.17;35.66;83.74;;
37223;Laerm;28026;48.562;14.440;2023-08-08T10:30:57;54.83;36.20;77.05;;
37223;Laerm;28026;48.562;14.440;2023-08-08T10:33:41;62.11;39.58;89.57;;
37223;Laerm;28026;48.562;14.440;2023-08-08T10:36:13;64.80;39.70;88.20;;
37223;Laerm;28026;48.562;14.440;2023-08-08T10:38:49;59.85;39.21;88.41;;
37223;Laerm;28026;48.562;14.440;2023-08-08T10:41:27;60.54;38.60;91.28;;
37223;Laerm;28026;48.562;14.440;2023-08-08T10:43:58;49.43;38.67;71.72;;
37223;Laerm;28026;48.562;14.440;2023-08-08T10:46:32;42.59;35.94;58.24;;
37223;Laerm;28026;48.562;14.440;2023-08-08T10:49:05;46.25;36.91;72.41;;
37223;Laerm;28026;48.562;14.440;2023-08-08T10:51:43;45.68;35.94;69.50;;
37223;Laerm;28026;48.562;14.440;2023-08-08T10:54:20;49.93;37.52;79.41;;
37223;Laerm;28026;48.562;14.440;2023-08-08T10:56:56;58.83;37.88;83.35;;
37223;Laerm;28026;48.562;14.440;2023-08-08T10:59:37;61.18;38.81;85.60;;
37223;Laerm;28026;48.562;14.440;2023-08-08T11:02:10;66.32;38.95;94.33;;
37223;Laerm;28026;48.562;14.440;2023-08-08T11:04:41;56.10;36.45;83.23;;
37223;Laerm;28026;48.562;14.440;2023-08-08T11:07:14;58.11;37.32;84.78;;
37223;Laerm;28026;48.562;14.440;2023-08-08T11:09:46;65.18;37.52;88.45;;
37223;Laerm;28026;48.562;14.440;2023-08-08T11:12:17;64.19;39.08;91.92;;
37223;Laerm;28026;48.562;14.440;2023-08-08T11:14:48;59.38;38.05;85.61;;
37223;Laerm;28026;48.562;14.440;2023-08-08T11:17:19;59.14;36.45;86.37;;
37223;Laerm;28026;48.562;14.440;2023-08-08T11:19:51;64.79;37.70;92.02;;
37223;Laerm;28026;48.562;14.440;2023-08-08T11:22:22;64.78;40.23;85.65;;
37223;Laerm;28026;48.562;14.440;2023-08-08T11:24:53;65.48;39.21;89.60;;
37223;Laerm;28026;48.562;14.440;2023-08-08T11:27:27;47.97;38.87;69.70;;
37223;Laerm;28026;48.562;14.440;2023-08-08T11:29:58;62.79;39.70;90.26;;
37223;Laerm;28026;48.562;14.440;2023-08-08T11:32:29;72.07;36.20;98.92;;
37223;Laerm;28026;48.562;14.440;2023-08-08T11:35:01;66.47;38.37;90.49;;
37223;Laerm;28026;48.562;14.440;2023-08-08T11:37:33;64.29;37.70;88.20;;
37223;Laerm;28026;48.562;14.440;2023-08-08T11:40:06;64.25;38.21;90.35;;
37223;Laerm;28026;48.562;14.440;2023-08-08T11:42:38;56.70;37.70;82.58;;
37223;Laerm;28026;48.562;14.440;2023-08-08T11:45:11;58.11;38.21;84.37;;
37223;Laerm;28026;48.562;14.440;2023-08-08T11:47:42;62.19;39.92;87.32;;
37223;Laerm;28026;48.562;14.440;2023-08-08T11:50:13;70.29;39.21;98.00;;
37223;Laerm;28026;48.562;14.440;2023-08-08T11:52:46;70.52;40.13;96.60;;
37223;Laerm;28026;48.562;14.440;2023-08-08T11:55:17;62.11;38.52;91.03;;
37223;Laerm;28026;48.562;14.440;2023-08-08T11:57:56;52.40;39.21;76.99;;
37223;Laerm;28026;48.562;14.440;2023-08-08T12:00:31;63.78;39.08;91.02;;
37223;Laerm;28026;48.562;14.440;2023-08-08T12:03:02;54.78;38.67;82.51;;
37223;Laerm;28026;48.562;14.440;2023-08-08T12:05:38;51.80;38.52;81.13;;
37223;Laerm;28026;48.562;14.440;2023-08-08T12:08:09;52.55;37.52;78.63;;
37223;Laerm;28026;48.562;14.440;2023-08-08T12:10:48;58.61;38.52;85.20;;
37223;Laerm;28026;48.562;14.440;2023-08-08T12:13:24;68.36;38.95;95.97;;
37223;Laerm;28026;48.562;14.440;2023-08-08T12:15:58;60.54;39.08;86.52;;
37223;Laerm;28026;48.562;14.440;2023-08-08T12:18:30;68.01;38.67;97.27;;
37223;Laerm;28026;48.562;14.440;2023-08-08T12:21:01;56.12;37.88;80.50;;
37223;Laerm;28026;48.562;14.440;2023-08-08T12:23:34;59.24;38.37;83.16;;
37223;Laerm;28026;48.562;14.440;2023-08-08T12:26:07;52.92;36.91;77.43;;
37223;Laerm;28026;48.562;14.440;2023-08-08T12:28:38;42.10;38.05;61.13;;
37223;Laerm;28026;48.562;14.440;2023-08-08T12:31:09;43.64;37.52;64.37;;
37223;Laerm;28026;48.562;14.440;2023-08-08T12:33:40;45.81;36.20;63.99;;
37223;Laerm;28026;48.562;14.440;2023-08-08T12:36:12;50.01;39.58;77.14;;
37223;Laerm;28026;48.562;14.440;2023-08-08T12:38:43;43.40;36.20;65.65;;
37223;Laerm;28026;48.562;14.440;2023-08-08T12:41:14;41.57;33.90;63.77;;
37223;Laerm;28026;48.562;14.440;2023-08-08T12:43:45;47.85;34.31;74.06;;
37223;Laerm;28026;48.562;14.440;2023-08-08T12:46:15;45.96;36.45;70.91;;
37223;Laerm;28026;48.562;14.440;2023-08-08T12:48:47;41.09;35.94;60.79;;
37223;Laerm;28026;48.562;14.440;2023-08-08T12:51:18;43.55;35.36;67.11;;
37223;Laerm;28026;48.562;14.440;2023-08-08T12:53:49;43.41;37.70;67.28;;
37223;Laerm;28026;48.562;14.440;2023-08-08T12:56:20;51.07;36.91;75.20;;
37223;Laerm;28026;48.562;14.440;2023-08-08T12:58:51;61.37;36.45;88.70;;
37223;Laerm;28026;48.562;14.440;2023-08-08T13:01:22;68.20;38.52;93.23;;
37223;Laerm;28026;48.562;14.440;2023-08-08T13:03:55;72.26;39.34;100.37;;
37223;Laerm;28026;48.562;14.440;2023-08-08T13:06:26;72.82;42.03;94.75;;
37223;Laerm;28026;48.562;14.440;2023-08-08T13:08:58;71.85;39.81;97.80;;
37223;Laerm;28026;48.562;14.440;2023-08-08T13:11:29;72.25;39.34;92.91;;
37223;Laerm;28026;48.562;14.440;2023-08-08T13:14:00;75.83;40.62;97.60;;
37223;Laerm;28026;48.562;14.440;2023-08-08T13:16:32;71.17;41.68;92.33;;
37223;Laerm;28026;48.562;14.440;2023-08-08T13:19:03;67.00;40.23;96.70;;
37223;Laerm;28026;48.562;14.440;2023-08-08T13:21:34;70.19;40.98;94.86;;
37223;Laerm;28026;48.562;14.440;2023-08-08T13:24:06;65.39;39.92;90.65;;
37223;Laerm;28026;48.562;14.440;2023-08-08T13:26:38;60.00;38.95;86.52;;
37223;Laerm;28026;48.562;14.440;2023-08-08T13:29:11;53.82;39.34;78.43;;
37223;Laerm;28026;48.562;14.440;2023-08-08T13:31:42;66.34;40.33;91.26;;
37223;Laerm;28026;48.562;14.440;2023-08-08T13:34:13;67.42;39.21;95.47;;
37223;Laerm;28026;48.562;14.440;2023-08-08T13:36:45;65.67;38.81;89.30;;
37223;Laerm;28026;48.562;14.440;2023-08-08T13:39:15;72.40;39.46;97.18;;
37223;Laerm;28026;48.562;14.440;2023-08-08T13:41:46;67.33;38.60;91.92;;
37223;Laerm;28026;48.562;14.440;2023-08-08T13:44:17;63.22;38.95;87.80;;
37223;Laerm;28026;48.562;14.440;2023-08-08T13:46:48;64.47;39.21;90.64;;
37223;Laerm;28026;48.562;14.440;2023-08-08T13:49:19;58.82;40.03;85.26;;
37223;Laerm;28026;48.562;14.440;2023-08-08T13:51:50;55.94;37.88;89.24;;
37223;Laerm;28026;48.562;14.440;2023-08-08T13:54:21;53.32;37.70;76.57;;
37223;Laerm;28026;48.562;14.440;2023-08-08T13:56:52;63.09;37.88;88.49;;